KMNI

Details ICAO KMNI
Name SANTEE COOPER RGNL
Region United States
Timezone America/New_York (UTC-4.0)
Plans Departing 1
Arriving 9
Stats Elevation 103 ft / 31 m (AMSL)
Location 33.587102° -80.208668°
Runways 1
Magnetic Variation 7.923° W
Sunrise 2018-05-22 10:17:18 UTC / 2018-05-22 06:17:18 Local
Sunset 2018-05-23 00:20:36 UTC / 2018-05-22 20:20:36 Local
Advertisement - Login to hide

Runways

ID Width Length Bearing (true) Bearing (mag) Surface Threshold Offset Overrun Length
02 75 ft / 23 m 3,610 ft / 1,100 m 12.05° 19.97° Asphalt 0 ft / 0 m 0 ft / 0 m
20 75 ft / 23 m 3,610 ft / 1,100 m 192.05° 199.97° Asphalt 0 ft / 0 m 0 ft / 0 m

Map

Weather


0- 5 10 15 20 25 30 35+ Temperature / ° C

Clouds and Precipitation
Forecast for 2018-05-22 18:00 UTC. Updated 6 hours ago

Ground ~20,000 ft ~40,000 ft Winds

METAR

KMNI 222235Z AUTO 00000KT 10SM CLR 23/20 A3007 RMK AO2

TAF

Not found

Frequencies

Unicom 122.80 MHz CTAF/UNICOM
Approach 125.40 MHz SHAW APP/DEP
Warning: Do not use this data for real-world aviation or navigation. No guarantee of current accuracy is given.